Time;durP1;ratioP1;P1;durP2;ratioP2;P2;SDS_P1;SDS_P2;PMS_P1;PMS_P2;Temp;Humidity;BMP_temperature;BMP_pressure;BME280_temperature;BME280_humidity;BME280_pressure;Samples;Min_cycle;Max_cycle;Signal;HPM_P1;HPM_P2
2023/03/13 00:00:53;;;;;;;9.32;2.15;;;;;;;17.71;45.29;100145.91;4938281;29;20045;-61
2023/03/13 00:03:18;;;;;;;9.27;2.28;;;;;;;17.74;44.99;100133.84;4937723;28;20043;-62
2023/03/13 00:05:44;;;;;;;12.60;1.50;;;;;;;17.77;45.25;100134.31;4937833;28;20511;-61
2023/03/13 00:08:09;;;;;;;13.88;1.80;;;;;;;17.78;45.45;100125.13;4953483;28;20031;-61
2023/03/13 00:10:39;;;;;;;5.32;3.35;;;;;;;17.79;45.36;100107.84;4937635;28;20043;-61
2023/03/13 00:13:05;;;;;;;9.98;1.75;;;;;;;17.80;45.83;100116.84;4953854;28;20042;-61
2023/03/13 00:15:31;;;;;;;12.32;2.08;;;;;;;17.79;46.44;100116.00;4958177;29;20038;-62
2023/03/13 00:17:56;;;;;;;7.03;1.75;;;;;;;17.80;45.62;100109.56;4956653;28;20027;-61
2023/03/13 00:20:21;;;;;;;5.10;1.42;;;;;;;17.81;45.42;100100.38;4954720;28;20506;-61
2023/03/13 00:22:47;;;;;;;11.88;2.90;;;;;;;17.82;45.85;100099.34;4955392;28;20043;-61
2023/03/13 00:25:12;;;;;;;11.45;2.28;;;;;;;17.74;46.24;100088.66;4953866;28;20019;-61
2023/03/13 00:27:38;;;;;;;6.03;2.30;;;;;;;17.85;46.38;100087.28;4953754;29;20062;-61
2023/03/13 00:30:04;;;;;;;9.10;1.83;;;;;;;17.86;46.10;100095.22;4953404;28;20039;-62
2023/03/13 00:32:29;;;;;;;11.27;2.45;;;;;;;17.88;46.22;100087.75;4937775;28;20123;-61
2023/03/13 00:34:54;;;;;;;4.95;1.48;;;;;;;17.91;45.26;100086.50;4954691;28;20495;-62
2023/03/13 00:37:20;;;;;;;6.43;1.55;;;;;;;17.87;46.77;100069.78;4953506;28;20142;-61
2023/03/13 00:39:45;;;;;;;7.82;1.52;;;;;;;17.92;45.53;100078.16;4937805;29;20036;-61
2023/03/13 00:42:11;;;;;;;8.27;2.63;;;;;;;17.94;46.14;100069.88;4953473;28;20027;-61
2023/03/13 00:44:36;;;;;;;5.82;1.58;;;;;;;17.90;45.80;100064.00;4954761;28;20032;-61
2023/03/13 00:47:01;;;;;;;5.88;1.40;;;;;;;17.87;46.90;100066.25;4953341;28;20035;-62
2023/03/13 00:49:27;;;;;;;11.30;1.88;;;;;;;17.76;46.48;100045.09;4937625;28;20384;-61
2023/03/13 00:51:52;;;;;;;5.60;1.90;;;;;;;17.75;47.08;100055.13;4937678;29;20031;-61
2023/03/13 00:54:18;;;;;;;16.77;2.58;;;;;;;17.64;47.04;100049.38;4971350;28;20038;-61
2023/03/13 00:56:43;;;;;;;7.68;1.30;;;;;;;17.66;47.08;100048.16;4956464;28;20514;-61
2023/03/13 00:59:08;;;;;;;8.93;1.48;;;;;;;17.65;47.97;100041.03;4973570;28;20037;-61
2023/03/13 01:01:35;;;;;;;8.23;1.67;;;;;;;17.63;46.96;100048.53;4972575;28;20185;-61
2023/03/13 01:04:06;;;;;;;13.13;1.90;;;;;;;17.60;47.22;100046.22;4956867;28;20111;-61
2023/03/13 01:06:34;;;;;;;3.50;1.27;;;;;;;17.56;47.13;100028.66;4975709;28;20399;-61
2023/03/13 01:09:00;;;;;;;7.50;2.05;;;;;;;17.54;47.73;100036.13;4976355;28;20034;-61
2023/03/13 01:11:28;;;;;;;11.38;1.52;;;;;;;17.52;47.07;100031.91;4960121;28;20043;-62
2023/03/13 01:13:55;;;;;;;6.25;1.25;;;;;;;17.45;48.32;100021.84;4976169;28;20042;-61
2023/03/13 01:16:21;;;;;;;7.00;1.75;;;;;;;17.34;47.93;100007.97;4959816;28;20491;-62
2023/03/13 01:18:50;;;;;;;10.27;1.40;;;;;;;17.34;47.87;99997.16;4960359;28;20041;-61
2023/03/13 01:21:18;;;;;;;6.05;1.23;;;;;;;17.40;47.41;100010.78;4976018;28;20035;-62
2023/03/13 01:23:44;;;;;;;10.95;1.65;;;;;;;17.30;48.04;99990.47;4976118;28;20065;-61
2023/03/13 01:26:10;;;;;;;9.23;1.80;;;;;;;17.34;48.09;99991.75;4943721;28;20034;-62
2023/03/13 01:28:35;;;;;;;9.90;1.73;;;;;;;17.35;48.56;99988.03;4977360;28;20113;-62
2023/03/13 01:31:10;;;;;;;9.68;1.98;;;;;;;17.36;47.86;99973.47;4960285;28;20386;-61
2023/03/13 01:33:35;;;;;;;4.90;1.92;;;;;;;17.38;48.51;99976.81;4959653;28;20046;-62
2023/03/13 01:36:02;;;;;;;4.63;1.10;;;;;;;17.30;49.28;99971.53;4959574;28;20126;-62
2023/03/13 01:38:27;;;;;;;9.75;1.55;;;;;;;17.37;48.85;99970.53;4959685;28;20039;-61
2023/03/13 01:40:53;;;;;;;5.38;1.45;;;;;;;17.33;48.59;99966.56;4975656;28;20039;-62
2023/03/13 01:43:30;;;;;;;5.82;0.77;;;;;;;17.22;48.92;99950.00;4959424;28;20026;-63
2023/03/13 01:46:13;;;;;;;5.97;1.35;;;;;;;17.33;48.94;99953.03;4975814;28;20134;-64
2023/03/13 01:48:57;;;;;;;3.22;1.15;;;;;;;17.29;49.31;99956.31;4975498;28;20104;-65
2023/03/13 01:51:25;;;;;;;12.93;1.10;;;;;;;17.21;49.41;99948.31;4975524;28;20042;-63
2023/03/13 01:54:14;;;;;;;4.95;1.58;;;;;;;17.14;49.52;99942.00;4976688;28;20113;-65
2023/03/13 01:56:53;;;;;;;3.28;0.95;;;;;;;17.10;50.33;99943.41;4975486;28;20122;-66
2023/03/13 01:59:22;;;;;;;3.97;1.10;;;;;;;17.08;50.19;99942.78;4975081;28;20093;-65
2023/03/13 02:01:49;;;;;;;8.80;1.10;;;;;;;17.06;50.48;99939.41;4959312;28;20062;-64
2023/03/13 02:04:15;;;;;;;5.22;1.00;;;;;;;17.01;49.58;99920.22;4975394;28;20483;-63
2023/03/13 02:06:43;;;;;;;8.85;1.20;;;;;;;17.03;50.72;99929.81;4975749;28;20030;-62
2023/03/13 02:09:12;;;;;;;2.17;0.98;;;;;;;17.10;50.34;99936.13;4975375;28;20031;-62
2023/03/13 02:12:02;;;;;;;2.45;1.00;;;;;;;17.13;49.58;99929.50;4959273;28;20413;-62
2023/03/13 02:14:30;;;;;;;2.60;1.40;;;;;;;17.13;49.80;99932.22;4975147;28;20042;-62
2023/03/13 02:16:56;;;;;;;3.08;1.20;;;;;;;17.14;51.08;99921.19;4974958;28;20070;-62
2023/03/13 02:19:31;;;;;;;6.82;2.00;;;;;;;17.13;50.97;99911.41;4958426;28;20403;-62
2023/03/13 02:22:20;;;;;;;3.95;0.93;;;;;;;17.21;50.40;99908.56;4975380;28;20023;-62
2023/03/13 02:25:15;;;;;;;2.55;1.15;;;;;;;17.18;50.66;99891.84;4966162;28;20553;-63
2023/03/13 02:27:42;;;;;;;6.78;0.88;;;;;;;17.26;50.06;99883.59;4975153;28;20494;-62
2023/03/13 02:30:08;;;;;;;1.95;0.85;;;;;;;17.30;50.13;99883.03;4976379;28;20038;-61
2023/03/13 02:32:34;;;;;;;1.17;0.60;;;;;;;17.36;50.30;99882.22;4958589;28;20056;-61
2023/03/13 02:35:06;;;;;;;1.70;0.60;;;;;;;17.40;50.35;99861.03;4958661;28;20062;-62
2023/03/13 02:37:32;;;;;;;6.03;0.95;;;;;;;17.44;50.40;99854.19;4974906;28;20034;-62
2023/03/13 02:40:00;;;;;;;4.28;1.20;;;;;;;17.46;51.40;99838.56;4959272;28;20026;-62
2023/03/13 02:42:26;;;;;;;2.25;0.80;;;;;;;17.35;50.57;99809.34;4974997;28;20398;-62
2023/03/13 02:44:52;;;;;;;5.38;0.70;;;;;;;17.50;51.37;99833.59;4975895;28;20030;-62
2023/03/13 02:47:22;;;;;;;2.42;0.80;;;;;;;17.53;49.97;99838.63;4974554;28;20042;-61
2023/03/13 02:49:47;;;;;;;2.92;0.70;;;;;;;17.47;50.93;99830.25;4942754;28;20038;-62
2023/03/13 02:52:21;;;;;;;2.17;0.95;;;;;;;17.56;50.57;99841.78;4975834;28;20045;-61
2023/03/13 02:54:49;;;;;;;1.70;0.80;;;;;;;17.53;50.93;99833.22;4975006;28;20038;-61
2023/03/13 02:57:14;;;;;;;3.60;0.73;;;;;;;17.62;50.67;99837.44;4974650;28;20035;-61
2023/03/13 02:59:40;;;;;;;1.38;0.68;;;;;;;17.65;51.00;99832.47;4958171;28;20038;-61
2023/03/13 03:02:05;;;;;;;0.63;0.60;;;;;;;17.61;50.91;99828.50;4975526;28;20176;-61
2023/03/13 03:04:30;;;;;;;0.95;0.68;;;;;;;17.59;50.74;99832.47;4974314;28;20034;-61
2023/03/13 03:06:56;;;;;;;1.45;0.70;;;;;;;17.49;50.98;99811.09;4975708;28;20039;-61
2023/03/13 03:09:22;;;;;;;1.35;0.80;;;;;;;17.52;51.63;99818.00;4973945;28;20035;-61
2023/03/13 03:11:47;;;;;;;1.52;1.00;;;;;;;17.54;51.30;99818.66;4958009;28;20035;-61
2023/03/13 03:14:13;;;;;;;0.82;0.57;;;;;;;17.53;51.95;99816.97;4974130;28;20086;-61
2023/03/13 03:16:39;;;;;;;2.88;0.80;;;;;;;17.62;51.74;99821.19;4973715;28;20398;-61
2023/03/13 03:19:05;;;;;;;1.38;0.90;;;;;;;17.65;51.76;99810.81;4973821;28;20027;-61
2023/03/13 03:21:31;;;;;;;1.15;0.60;;;;;;;17.66;51.48;99792.69;4974232;28;20082;-61
2023/03/13 03:23:57;;;;;;;1.88;1.00;;;;;;;17.66;51.46;99807.06;4957810;28;20134;-61
2023/03/13 03:26:22;;;;;;;1.08;0.70;;;;;;;17.71;51.02;99810.00;4973776;28;20542;-61
2023/03/13 03:28:48;;;;;;;2.22;0.80;;;;;;;17.73;52.37;99818.78;4973487;28;20578;-62
2023/03/13 03:31:14;;;;;;;5.38;1.10;;;;;;;17.77;51.38;99806.50;4973722;28;20026;-61
2023/03/13 03:33:40;;;;;;;1.05;0.70;;;;;;;17.80;51.26;99806.13;4974027;28;20027;-61
2023/03/13 03:36:08;;;;;;;4.18;0.70;;;;;;;17.84;51.70;99820.91;4973545;28;20435;-61
2023/03/13 03:38:33;;;;;;;1.25;0.93;;;;;;;17.86;51.44;99808.03;4973360;28;20035;-62
2023/03/13 03:40:59;;;;;;;0.77;0.73;;;;;;;17.86;51.39;99810.72;4973410;28;20088;-61
2023/03/13 03:43:25;;;;;;;1.55;0.90;;;;;;;17.88;51.99;99811.38;4973646;28;20033;-61
2023/03/13 03:45:50;;;;;;;0.88;0.68;;;;;;;17.97;51.74;99815.59;4957721;28;20487;-61
2023/03/13 03:48:15;;;;;;;4.10;1.25;;;;;;;17.99;51.98;99813.50;4957360;28;20042;-61
2023/03/13 03:50:41;;;;;;;1.20;1.10;;;;;;;18.05;52.41;99811.84;4974637;28;20064;-61
2023/03/13 03:53:06;;;;;;;1.27;0.73;;;;;;;18.04;51.83;99805.59;4973420;28;20038;-62
2023/03/13 03:55:32;;;;;;;1.02;0.82;;;;;;;18.13;51.89;99813.53;4957267;28;20030;-61
2023/03/13 03:57:57;;;;;;;0.95;0.80;;;;;;;18.15;52.13;99804.16;4957734;28;20089;-62
2023/03/13 04:00:23;;;;;;;3.60;0.52;;;;;;;18.18;52.50;99805.63;4973185;28;20129;-61
2023/03/13 04:02:49;;;;;;;2.28;0.88;;;;;;;18.14;51.51;99788.13;4972889;28;20026;-61
2023/03/13 04:05:14;;;;;;;0.95;0.70;;;;;;;18.22;51.50;99796.91;4957223;28;20077;-62
2023/03/13 04:07:39;;;;;;;0.70;0.70;;;;;;;18.25;51.81;99803.78;4973340;28;20106;-61
2023/03/13 04:10:06;;;;;;;1.02;0.52;;;;;;;18.17;51.40;99788.56;4957167;28;20106;-62
2023/03/13 04:12:31;;;;;;;2.05;0.65;;;;;;;18.30;52.03;99801.31;4973602;28;20035;-62
2023/03/13 04:14:56;;;;;;;0.55;0.55;;;;;;;18.33;51.88;99798.19;4956802;28;20042;-61
2023/03/13 04:17:22;;;;;;;0.95;0.60;;;;;;;18.37;51.64;99783.19;4956964;28;20041;-62
2023/03/13 04:19:47;;;;;;;2.20;0.73;;;;;;;18.37;52.24;99783.19;4972875;28;20517;-61
2023/03/13 04:22:13;;;;;;;4.90;0.95;;;;;;;18.40;51.38;99793.59;4973059;28;20088;-62
2023/03/13 04:24:38;;;;;;;1.20;0.70;;;;;;;18.41;51.90;99790.69;4957160;28;20038;-61
2023/03/13 04:27:05;;;;;;;2.95;0.80;;;;;;;18.45;52.07;99791.13;4956795;28;20038;-61
2023/03/13 04:29:33;;;;;;;1.05;0.60;;;;;;;18.42;51.45;99765.25;4956849;28;20058;-61
2023/03/13 04:31:59;;;;;;;2.97;0.82;;;;;;;18.53;52.06;99777.41;4972925;28;20410;-62
2023/03/13 04:34:25;;;;;;;0.50;0.50;;;;;;;18.55;51.92;99786.16;4956863;28;20035;-62
2023/03/13 04:36:50;;;;;;;1.17;0.55;;;;;;;18.50;51.91;99761.53;4957969;28;20034;-61
2023/03/13 04:39:16;;;;;;;0.80;0.65;;;;;;;18.59;51.61;99776.59;4973503;28;20050;-61
2023/03/13 04:41:41;;;;;;;0.90;0.80;;;;;;;18.62;51.77;99761.78;4959473;28;20050;-61
2023/03/13 04:44:06;;;;;;;0.43;0.43;;;;;;;18.66;52.23;99754.88;4981147;28;20035;-62
2023/03/13 04:46:32;;;;;;;1.95;0.60;;;;;;;18.62;52.16;99727.31;4976627;28;20043;-61
2023/03/13 04:48:57;;;;;;;0.90;0.60;;;;;;;18.72;51.68;99732.34;4977367;28;20035;-62
2023/03/13 04:51:23;;;;;;;2.88;0.75;;;;;;;18.77;51.75;99724.41;4976689;28;20054;-61
2023/03/13 04:53:48;;;;;;;3.20;1.10;;;;;;;18.76;52.15;99729.00;4944478;28;20038;-61
2023/03/13 04:56:23;;;;;;;5.88;1.10;;;;;;;18.78;52.19;99726.09;4976323;28;20058;-61
2023/03/13 04:58:49;;;;;;;1.33;1.10;;;;;;;18.72;51.85;99714.19;4976660;28;20037;-61
2023/03/13 05:01:14;;;;;;;2.03;0.95;;;;;;;18.80;52.17;99719.41;4960262;28;20030;-61
2023/03/13 05:03:40;;;;;;;1.70;1.00;;;;;;;18.82;52.07;99706.47;4976689;28;20101;-61
2023/03/13 05:06:05;;;;;;;3.67;0.90;;;;;;;18.83;52.20;99708.13;4977767;28;20581;-62
2023/03/13 05:08:38;;;;;;;3.20;0.77;;;;;;;18.83;52.31;99708.13;4960407;28;20035;-61
2023/03/13 05:11:04;;;;;;;1.67;0.82;;;;;;;18.88;51.48;99716.47;4976445;28;20552;-61
2023/03/13 05:13:29;;;;;;;1.48;0.98;;;;;;;18.92;51.49;99716.91;4960195;28;20043;-62
2023/03/13 05:15:55;;;;;;;1.45;0.88;;;;;;;18.88;51.59;99711.06;4976459;28;20072;-62
2023/03/13 05:18:21;;;;;;;1.00;0.90;;;;;;;18.87;51.32;99714.78;4959994;28;20622;-61
2023/03/13 05:20:46;;;;;;;1.55;0.90;;;;;;;18.94;52.21;99734.63;4959755;28;20069;-62
2023/03/13 05:23:12;;;;;;;3.22;0.98;;;;;;;18.91;51.94;99721.50;4959632;28;20031;-62
2023/03/13 05:25:37;;;;;;;3.88;0.95;;;;;;;18.99;51.79;99718.56;4959755;28;20038;-61
2023/03/13 05:28:03;;;;;;;0.98;0.70;;;;;;;18.92;52.02;99695.19;4959756;28;20034;-62
2023/03/13 05:30:28;;;;;;;2.95;0.93;;;;;;;19.05;51.81;99720.44;4960703;28;20479;-61
2023/03/13 05:32:53;;;;;;;2.72;0.80;;;;;;;19.04;51.60;99726.91;4976211;28;20085;-62
2023/03/13 05:35:19;;;;;;;3.72;1.30;;;;;;;19.05;51.87;99728.56;4975940;28;20049;-61
2023/03/13 05:37:45;;;;;;;1.95;1.27;;;;;;;19.07;51.82;99726.47;4975954;28;20039;-61
2023/03/13 05:40:11;;;;;;;5.28;1.05;;;;;;;19.08;51.69;99732.75;4943570;28;20041;-61
2023/03/13 05:42:37;;;;;;;1.13;0.75;;;;;;;19.04;52.18;99724.19;4975910;28;20052;-61
2023/03/13 05:45:03;;;;;;;2.45;0.88;;;;;;;19.06;52.06;99726.69;4959273;28;20524;-61
2023/03/13 05:47:28;;;;;;;1.00;0.85;;;;;;;19.15;51.62;99728.16;4976573;28;20046;-61
2023/03/13 05:49:53;;;;;;;2.88;0.90;;;;;;;19.16;51.54;99727.94;4959333;28;20066;-62
2023/03/13 05:52:19;;;;;;;2.42;1.00;;;;;;;19.18;51.98;99728.53;4959432;28;20122;-63
2023/03/13 05:54:44;;;;;;;1.83;0.93;;;;;;;19.22;51.75;99725.41;4943643;28;20117;-61
2023/03/13 05:57:10;;;;;;;8.18;0.98;;;;;;;19.22;51.43;99728.13;4975332;28;20041;-61
2023/03/13 05:59:35;;;;;;;3.22;0.90;;;;;;;19.17;51.58;99713.31;4959170;28;20067;-61
2023/03/13 06:02:01;;;;;;;3.90;0.80;;;;;;;19.27;51.88;99725.59;4975276;28;20057;-61
2023/03/13 06:04:26;;;;;;;2.95;0.80;;;;;;;19.27;51.62;99734.59;4959223;28;20111;-61
2023/03/13 06:06:51;;;;;;;0.85;0.80;;;;;;;19.30;51.56;99736.03;4975835;28;20031;-61
2023/03/13 06:09:17;;;;;;;1.20;0.98;;;;;;;19.31;51.42;99727.69;4975420;28;20487;-61
2023/03/13 06:11:42;;;;;;;1.15;0.73;;;;;;;19.29;51.86;99718.09;4958891;28;20027;-63
2023/03/13 06:14:08;;;;;;;1.95;1.10;;;;;;;19.38;51.29;99722.22;4975205;28;20030;-62
2023/03/13 06:16:33;;;;;;;1.02;0.80;;;;;;;19.40;51.35;99731.06;4974949;28;20071;-61
2023/03/13 06:18:59;;;;;;;0.73;0.70;;;;;;;19.43;51.60;99738.78;4975584;28;20070;-61
2023/03/13 06:21:24;;;;;;;1.23;0.90;;;;;;;19.38;51.27;99727.66;4975176;28;20035;-61
2023/03/13 06:23:50;;;;;;;1.17;0.93;;;;;;;19.45;51.20;99744.81;4975097;28;20039;-62
2023/03/13 06:26:15;;;;;;;3.45;1.15;;;;;;;19.46;51.14;99730.19;4976070;28;20039;-62
2023/03/13 06:28:41;;;;;;;2.97;0.95;;;;;;;19.46;51.15;99731.00;4958786;28;20031;-61
2023/03/13 06:31:07;;;;;;;5.82;1.33;;;;;;;19.49;50.91;99727.03;4974690;28;20101;-61
2023/03/13 06:33:33;;;;;;;1.42;1.10;;;;;;;19.51;51.33;99733.13;4959332;28;20035;-62
2023/03/13 06:36:00;;;;;;;1.02;0.75;;;;;;;19.53;50.81;99731.00;4955168;28;20058;-62
2023/03/13 06:38:26;;;;;;;7.22;1.63;;;;;;;19.51;51.21;99727.69;4955175;28;20035;-61
2023/03/13 06:40:51;;;;;;;5.80;1.00;;;;;;;19.52;50.58;99718.47;4955704;28;20110;-61
2023/03/13 06:43:18;;;;;;;2.33;0.60;;;;;;;19.61;50.84;99728.06;4954684;28;20483;-61
2023/03/13 06:45:43;;;;;;;2.42;1.15;;;;;;;19.64;51.11;99722.19;4939660;28;20502;-62
2023/03/13 06:48:08;;;;;;;1.88;0.85;;;;;;;19.65;50.80;99724.69;4956458;28;20051;-61
2023/03/13 06:50:37;;;;;;;2.72;1.08;;;;;;;19.60;50.69;99705.47;4956200;28;20122;-62
2023/03/13 06:53:02;;;;;;;3.05;0.88;;;;;;;19.69;50.51;99697.91;4958474;28;20077;-61
2023/03/13 06:55:27;;;;;;;3.22;1.10;;;;;;;19.73;50.65;99715.47;4958315;28;20556;-61
2023/03/13 06:57:53;;;;;;;2.38;1.08;;;;;;;19.70;50.45;99711.31;4958716;28;20085;-62
2023/03/13 07:00:19;;;;;;;3.28;0.88;;;;;;;19.80;50.18;99705.41;4958426;28;20403;-61
2023/03/13 07:02:44;;;;;;;6.78;1.35;;;;;;;19.82;50.45;99686.97;4988086;28;20042;-62
2023/03/13 07:05:10;;;;;;;3.60;1.15;;;;;;;19.87;49.88;99700.78;4977117;28;20080;-61
2023/03/13 07:07:35;;;;;;;6.20;1.33;;;;;;;19.93;50.36;99688.19;4995096;28;20030;-62
2023/03/13 07:10:01;;;;;;;1.55;0.98;;;;;;;19.96;50.35;99677.69;4978160;28;20031;-62
2023/03/13 07:12:26;;;;;;;4.35;0.93;;;;;;;19.98;49.83;99697.38;4961364;28;20042;-62
2023/03/13 07:14:52;;;;;;;6.63;1.42;;;;;;;19.96;50.06;99672.25;4993513;28;20041;-61
2023/03/13 07:17:17;;;;;;;2.42;0.90;;;;;;;20.05;50.41;99683.72;4977389;28;20027;-62
2023/03/13 07:19:42;;;;;;;2.30;0.85;;;;;;;19.98;50.24;99666.63;4994726;28;20044;-61
2023/03/13 07:22:08;;;;;;;6.60;1.25;;;;;;;20.04;49.75;99685.63;4977171;28;20442;-62
2023/03/13 07:24:33;;;;;;;4.75;1.13;;;;;;;20.03;50.25;99694.81;4990447;28;20023;-62
2023/03/13 07:26:59;;;;;;;5.57;1.25;;;;;;;20.03;49.95;99689.38;4973610;28;20085;-62
2023/03/13 07:29:24;;;;;;;4.20;1.13;;;;;;;20.00;49.89;99691.69;4989764;28;20035;-61
2023/03/13 07:31:49;;;;;;;7.00;1.30;;;;;;;20.05;49.56;99687.28;4973524;28;20410;-61
2023/03/13 07:34:15;;;;;;;3.45;1.33;;;;;;;20.08;49.46;99686.84;4973709;28;20514;-61
2023/03/13 07:36:40;;;;;;;6.40;1.20;;;;;;;20.10;49.34;99683.91;4957991;28;20039;-62
2023/03/13 07:39:06;;;;;;;5.10;1.42;;;;;;;20.05;49.55;99687.28;4973715;28;20039;-61
2023/03/13 07:41:32;;;;;;;9.00;2.00;;;;;;;20.12;49.38;99695.41;4973481;28;20403;-61
2023/03/13 07:43:57;;;;;;;2.90;1.23;;;;;;;20.09;48.97;99693.97;4957588;28;20038;-61
2023/03/13 07:46:23;;;;;;;9.23;1.23;;;;;;;20.13;48.79;99697.88;4941271;28;20039;-62
2023/03/13 07:48:49;;;;;;;2.70;1.13;;;;;;;20.16;49.15;99693.91;4974890;28;20565;-61
2023/03/13 07:51:17;;;;;;;3.72;1.10;;;;;;;20.11;49.05;99678.25;4979808;28;20034;-61
2023/03/13 07:53:43;;;;;;;3.20;0.70;;;;;;;20.20;49.07;99687.81;4994035;28;20034;-61
2023/03/13 07:56:10;;;;;;;3.38;1.10;;;;;;;20.22;48.61;99693.88;4992574;28;20141;-62
2023/03/13 07:58:37;;;;;;;3.22;1.65;;;;;;;20.26;49.45;99695.13;4976486;28;20081;-61
2023/03/13 08:01:14;;;;;;;4.88;1.10;;;;;;;20.30;49.65;99695.50;4992561;28;20109;-61
2023/03/13 08:03:40;;;;;;;6.15;3.15;;;;;;;20.32;49.63;99693.44;4992958;28;20030;-62
2023/03/13 08:06:07;;;;;;;8.55;1.42;;;;;;;20.36;48.94;99696.53;4976415;28;20210;-61
2023/03/13 08:08:33;;;;;;;3.85;1.25;;;;;;;20.39;48.94;99688.75;4992621;28;20034;-61
2023/03/13 08:11:03;;;;;;;4.60;1.13;;;;;;;20.39;48.98;99688.75;4992281;28;20089;-61
2023/03/13 08:13:29;;;;;;;7.22;0.82;;;;;;;20.44;48.35;99685.38;4992534;28;20509;-61
2023/03/13 08:16:08;;;;;;;3.58;1.35;;;;;;;20.48;49.32;99673.00;4975727;28;20375;-61
2023/03/13 08:18:35;;;;;;;4.25;1.15;;;;;;;20.46;48.67;99680.56;4993703;28;20092;-61
2023/03/13 08:21:08;;;;;;;2.63;0.80;;;;;;;20.45;49.20;99681.59;4992355;28;20035;-62
2023/03/13 08:23:34;;;;;;;6.95;1.85;;;;;;;20.38;49.13;99659.06;4992218;28;20422;-62
2023/03/13 08:26:13;;;;;;;4.47;1.00;;;;;;;20.48;48.77;99670.28;4992235;28;20516;-65
2023/03/13 08:28:40;;;;;;;9.05;1.20;;;;;;;20.60;48.55;99676.69;4976182;28;20126;-62
2023/03/13 08:31:16;;;;;;;3.22;1.05;;;;;;;20.67;48.75;99655.66;4976378;28;20089;-62
2023/03/13 08:33:44;;;;;;;3.75;1.10;;;;;;;20.89;48.60;99660.47;4976487;28;20101;-62
2023/03/13 08:36:19;;;;;;;4.40;1.23;;;;;;;20.92;48.28;99662.75;4976028;28;20525;-62
2023/03/13 08:38:46;;;;;;;2.63;1.02;;;;;;;21.03;48.18;99661.19;4993370;28;20027;-62
2023/03/13 08:41:16;;;;;;;5.35;1.08;;;;;;;21.13;47.82;99660.69;4975954;28;20581;-62
2023/03/13 08:43:42;;;;;;;5.00;1.10;;;;;;;21.29;47.74;99657.38;4992065;28;20502;-62
2023/03/13 08:46:07;;;;;;;3.88;1.23;;;;;;;21.29;48.22;99652.75;4993211;28;20033;-62
2023/03/13 08:48:32;;;;;;;2.70;0.93;;;;;;;21.32;48.47;99630.50;4992547;28;20046;-61
2023/03/13 08:51:12;;;;;;;6.38;1.13;;;;;;;21.57;47.89;99637.75;4992032;28;20464;-62
2023/03/13 08:53:39;;;;;;;8.55;1.40;;;;;;;22.03;47.46;99636.06;4976040;28;20042;-61
2023/03/13 08:56:05;;;;;;;2.25;0.93;;;;;;;22.33;46.75;99638.78;4992260;28;20049;-62
2023/03/13 08:58:31;;;;;;;5.18;1.00;;;;;;;22.22;47.52;99639.56;4975133;28;20504;-64
2023/03/13 09:01:24;;;;;;;3.45;0.80;;;;;;;22.09;47.83;99639.75;4958140;28;20049;-66
2023/03/13 09:03:49;;;;;;;1.75;0.80;;;;;;;22.11;46.92;99629.44;4972354;28;20058;-62
2023/03/13 09:06:15;;;;;;;5.50;1.20;;;;;;;22.01;48.15;99646.38;4956328;28;20023;-62
2023/03/13 09:08:41;;;;;;;5.93;0.95;;;;;;;21.86;47.51;99631.50;4973808;28;20101;-61
2023/03/13 09:11:10;;;;;;;2.55;1.15;;;;;;;21.86;48.15;99647.84;4956153;28;20035;-62
2023/03/13 09:13:38;;;;;;;3.90;0.90;;;;;;;21.88;47.15;99651.19;4973692;28;20027;-62
2023/03/13 09:16:06;;;;;;;3.53;1.27;;;;;;;22.07;47.82;99639.16;4956264;28;20043;-62
2023/03/13 09:18:32;;;;;;;3.97;1.20;;;;;;;22.15;47.18;99618.91;4956735;28;20030;-62
2023/03/13 09:20:57;;;;;;;5.57;1.38;;;;;;;22.75;46.24;99620.44;4973784;28;20097;-62
2023/03/13 09:23:23;;;;;;;6.57;1.30;;;;;;;23.11;46.01;99627.53;4973794;28;20099;-62
2023/03/13 09:25:52;;;;;;;6.10;1.08;;;;;;;23.28;45.96;99624.91;4972051;28;20130;-62
2023/03/13 09:28:18;;;;;;;2.10;0.98;;;;;;;23.52;46.12;99621.88;4959263;28;20052;-62
2023/03/13 09:30:43;;;;;;;2.05;1.33;;;;;;;23.89;45.74;99616.03;4992541;28;20550;-62
2023/03/13 09:33:09;;;;;;;2.05;0.85;;;;;;;23.96;45.78;99613.97;4977275;28;20045;-62
2023/03/13 09:35:34;;;;;;;5.10;1.15;;;;;;;24.12;45.23;99602.28;4992135;28;20089;-62
2023/03/13 09:38:00;;;;;;;2.72;0.90;;;;;;;24.12;44.96;99599.53;4991959;28;20070;-62
2023/03/13 09:40:26;;;;;;;1.98;0.90;;;;;;;24.09;45.06;99605.47;4959660;28;20039;-62
2023/03/13 09:42:58;;;;;;;4.00;1.25;;;;;;;24.07;44.95;99602.97;4976017;28;20026;-62
2023/03/13 09:45:33;;;;;;;3.77;0.87;;;;;;;24.06;44.95;99600.47;4975647;28;20110;-62
2023/03/13 09:48:06;;;;;;;5.53;1.05;;;;;;;24.43;44.97;99609.91;4991418;28;20284;-61
2023/03/13 09:50:35;;;;;;;2.05;0.80;;;;;;;25.89;42.12;99598.22;4991675;28;20043;-63
2023/03/13 09:53:06;;;;;;;2.20;0.80;;;;;;;25.16;43.47;99574.03;4975707;28;20494;-62
2023/03/13 09:55:33;;;;;;;1.17;0.70;;;;;;;25.21;43.55;99570.53;4981842;28;20563;-62
2023/03/13 09:58:12;;;;;;;1.67;0.73;;;;;;;24.78;43.84;99574.03;4978878;28;20030;-63
2023/03/13 10:00:39;;;;;;;2.60;0.90;;;;;;;24.84;44.13;99582.09;4994717;28;20050;-63
2023/03/13 10:03:08;;;;;;;0.95;0.65;;;;;;;24.75;43.95;99578.09;4994501;28;20041;-62
2023/03/13 10:05:33;;;;;;;1.98;0.65;;;;;;;24.59;44.26;99573.47;4996033;28;20038;-62
2023/03/13 10:08:23;;;;;;;5.70;1.10;;;;;;;24.62;44.23;99574.88;4994664;28;20038;-62
2023/03/13 10:11:17;;;;;;;2.85;0.73;;;;;;;24.43;44.33;99565.28;4994280;28;20460;-62
2023/03/13 10:14:04;;;;;;;3.58;0.80;;;;;;;24.40;44.15;99557.56;4978007;28;20084;-62
2023/03/13 10:16:35;;;;;;;1.50;0.65;;;;;;;24.87;43.15;99551.44;4994458;28;20030;-62
2023/03/13 10:19:10;;;;;;;2.40;0.80;;;;;;;26.12;41.57;99552.31;4994998;28;20073;-62
2023/03/13 10:21:36;;;;;;;2.42;1.23;;;;;;;25.92;42.38;99551.06;4994764;28;20403;-62
2023/03/13 10:24:07;;;;;;;2.42;0.40;;;;;;;25.73;42.56;99546.19;4995925;28;20042;-62
2023/03/13 10:26:34;;;;;;;3.95;0.88;;;;;;;25.51;42.90;99551.72;4995659;28;20035;-62
2023/03/13 10:29:30;;;;;;;1.90;0.82;;;;;;;25.34;42.77;99545.47;4977851;28;20057;-62
2023/03/13 10:31:58;;;;;;;2.65;0.98;;;;;;;25.23;42.93;99536.28;4973721;28;20038;-62
2023/03/13 10:34:26;;;;;;;2.65;0.90;;;;;;;25.36;42.69;99530.41;4995439;28;20509;-62
2023/03/13 10:37:00;;;;;;;0.68;0.68;;;;;;;25.17;42.58;99534.56;4978171;28;20037;-62
2023/03/13 10:39:28;;;;;;;3.53;0.90;;;;;;;25.46;42.04;99546.16;4993366;28;20042;-62
2023/03/13 10:42:08;;;;;;;0.85;0.50;;;;;;;25.52;41.88;99516.91;4978229;28;20030;-62
2023/03/13 10:44:34;;;;;;;2.35;0.68;;;;;;;25.27;42.64;99520.97;4978235;28;20035;-62
2023/03/13 10:47:01;;;;;;;1.27;0.57;;;;;;;25.29;42.38;99504.28;4977842;28;20400;-62
2023/03/13 10:49:27;;;;;;;3.25;0.70;;;;;;;25.72;41.67;99517.09;4993917;28;20482;-63
2023/03/13 10:51:56;;;;;;;1.70;0.70;;;;;;;26.22;41.55;99512.06;4994313;28;20026;-62
2023/03/13 10:54:24;;;;;;;5.55;0.50;;;;;;;26.49;41.03;99501.00;4993874;28;20035;-62
2023/03/13 10:56:51;;;;;;;1.27;0.40;;;;;;;27.22;39.88;99518.44;4977854;28;20051;-63
2023/03/13 10:59:22;;;;;;;3.30;0.35;;;;;;;27.43;39.73;99485.25;4974296;28;20062;-62
2023/03/13 11:01:47;;;;;;;0.35;0.30;;;;;;;28.74;38.85;99481.63;4974156;28;20038;-63
2023/03/13 11:04:32;;;;;;;4.43;0.50;;;;;;;29.29;37.86;99486.09;4975624;28;20086;-64
2023/03/13 11:07:04;;;;;;;2.22;0.43;;;;;;;30.00;36.79;99472.69;4990718;28;20011;-65
2023/03/13 11:09:30;;;;;;;1.70;0.63;;;;;;;30.15;37.23;99478.03;4974166;28;20046;-63
2023/03/13 11:12:03;;;;;;;1.08;0.40;;;;;;;30.53;36.10;99474.41;4975123;28;20576;-64
2023/03/13 11:14:28;;;;;;;0.38;0.38;;;;;;;30.48;36.24;99470.88;4975145;28;20105;-65
2023/03/13 11:16:57;;;;;;;0.28;0.20;;;;;;;30.26;36.17;99463.03;4973752;28;20502;-64
2023/03/13 11:19:49;;;;;;;1.20;0.40;;;;;;;29.93;36.56;99461.13;4975052;28;20041;-63
2023/03/13 11:22:37;;;;;;;1.17;0.40;;;;;;;30.04;36.36;99465.44;4974875;28;20026;-62
2023/03/13 11:25:22;;;;;;;2.42;0.40;;;;;;;30.33;35.73;99444.16;4989928;28;20019;-65
2023/03/13 11:28:11;;;;;;;0.65;0.30;;;;;;;29.88;36.07;99450.13;4974241;28;20114;-65
2023/03/13 11:30:52;;;;;;;0.70;0.20;;;;;;;28.89;37.00;99454.03;4989841;28;20058;-63
2023/03/13 11:33:35;;;;;;;1.95;0.52;;;;;;;28.23;38.05;99456.09;4974548;28;20059;-64
2023/03/13 11:36:05;;;;;;;0.52;0.52;;;;;;;27.74;37.66;99425.56;4989766;28;20081;-65